Main page
METAR-TAF:

METAR-TAF

Airports :

Midland Airpark

Midland, Texas, United States

latitude: 32-02-11N, longitude: 102-06-03W, elevation: 2801 ft

Current weather observation

The report was made 25 minutes ago, at 17:35 UTC
Wind 17 mph from the South
Temperature 88°F
Humidity 43%
Pressure 29.96 in. Hg
Visibility: 10 miles

METAR: KMDD 151735Z AUTO 17015KT 10SM 31/17 A2996 RMK AO2 T03130166

Time: 13:00 (18:00 UTC)


TAF: missing

Weather observations and forecasts of more than 4000 airports (METAR and TAF reports).

The available stations are represented by yellow and red dots on the map.

Hover mouse over dot to see the name of the station.

Then click to see weather observations and forecasts.

To change the map : click on the green buttons with a black cross to zoom in, on the green button with a dash to zoom out, or on the green arrows for adjacent maps.


METAR-TAF: